Time;durP1;ratioP1;P1;durP2;ratioP2;P2;SDS_P1;SDS_P2;PMS_P1;PMS_P2;Temp;Humidity;BMP_temperature;BMP_pressure;BME280_temperature;BME280_humidity;BME280_pressure;Samples;Min_cycle;Max_cycle;Signal;HPM_P1;HPM_P2
2024/04/05 00:06:13;;;;;;;10.85;4.25;;;3.60;99.90;;;;;;20348591;29;20087;-37
2024/04/05 00:16:15;;;;;;;8.82;4.55;;;3.50;99.90;;;;;;20335920;29;20555;-38
2024/04/05 00:26:16;;;;;;;11.52;4.72;;;3.50;99.90;;;;;;20381939;29;20044;-38
2024/04/05 00:36:22;;;;;;;11.10;5.05;;;3.50;99.90;;;;;;20362498;29;20036;-39
2024/04/05 00:46:24;;;;;;;11.70;5.32;;;3.40;99.90;;;;;;20423061;29;20036;-38
2024/04/05 00:56:28;;;;;;;13.60;6.13;;;3.40;99.90;;;;;;20400104;29;20056;-38
2024/04/05 01:06:30;;;;;;;9.90;4.53;;;3.40;99.90;;;;;;20364358;29;20114;-38
2024/04/05 01:16:31;;;;;;;6.93;3.22;;;3.60;99.90;;;;;;20425606;29;20034;-39
2024/04/05 01:26:33;;;;;;;8.95;4.55;;;4.50;99.90;;;;;;20424019;29;20058;-38
2024/04/05 01:36:35;;;;;;;3.88;2.78;;;4.60;99.90;;;;;;20406840;29;20032;-38
2024/04/05 01:46:37;;;;;;;3.22;1.90;;;4.30;99.90;;;;;;20404475;29;20107;-38
2024/04/05 01:56:38;;;;;;;3.47;1.65;;;4.10;99.90;;;;;;20371113;29;20032;-38
2024/04/05 02:06:41;;;;;;;3.72;1.80;;;4.10;99.90;;;;;;20360066;29;20039;-39
2024/04/05 02:16:43;;;;;;;2.97;1.50;;;4.20;99.90;;;;;;20359859;29;20098;-38
2024/04/05 02:26:45;;;;;;;4.20;1.40;;;4.20;99.90;;;;;;20357824;29;20055;-38
2024/04/05 02:36:49;;;;;;;2.67;1.70;;;3.90;99.90;;;;;;20359035;29;20035;-38
2024/04/05 02:46:52;;;;;;;4.43;1.30;;;3.80;99.90;;;;;;20374920;29;20031;-37
2024/04/05 02:57:02;;;;;;;4.80;1.45;;;3.70;99.90;;;;;;20417358;29;20087;-37
2024/04/05 03:07:04;;;;;;;8.13;2.20;;;3.60;99.90;;;;;;20415665;29;20044;-38
2024/04/05 03:17:07;;;;;;;7.88;2.20;;;3.60;99.90;;;;;;20414817;29;20039;-38
2024/04/05 03:27:09;;;;;;;7.95;3.65;;;3.70;99.90;;;;;;20337945;29;20507;-38
2024/04/05 03:37:10;;;;;;;2.70;1.38;;;3.90;99.90;;;;;;20339145;29;20024;-38
2024/04/05 03:47:12;;;;;;;6.88;2.10;;;3.70;99.90;;;;;;20340606;29;20384;-38
2024/04/05 03:57:14;;;;;;;3.92;2.67;;;3.60;99.90;;;;;;20344211;29;20040;-38
2024/04/05 04:07:16;;;;;;;7.30;3.85;;;3.50;99.90;;;;;;20365013;29;20048;-38
2024/04/05 04:17:17;;;;;;;12.35;4.63;;;3.40;99.90;;;;;;20429875;29;20399;-38
2024/04/05 04:27:19;;;;;;;14.38;8.38;;;3.30;99.90;;;;;;20428490;29;20048;-37
2024/04/05 04:37:23;;;;;;;10.52;7.20;;;3.50;99.90;;;;;;20415028;29;20032;-38
2024/04/05 04:47:26;;;;;;;16.58;8.88;;;3.50;99.90;;;;;;20347299;29;20514;-38
2024/04/05 04:57:32;;;;;;;12.25;4.30;;;3.70;99.90;;;;;;20399312;29;20555;-38
2024/04/05 05:07:34;;;;;;;10.52;4.45;;;3.90;99.90;;;;;;20372191;29;20111;-38
2024/04/05 05:17:36;;;;;;;21.25;10.10;;;3.80;99.90;;;;;;20423896;29;20035;-37
2024/04/05 05:27:38;;;;;;;8.93;5.45;;;3.90;99.90;;;;;;20423864;29;20048;-38
2024/04/05 05:37:41;;;;;;;9.30;7.15;;;4.30;99.90;;;;;;20389425;29;20035;-38
2024/04/05 05:47:43;;;;;;;13.05;7.43;;;4.60;99.90;;;;;;20408243;29;20387;-39
2024/04/05 05:57:45;;;;;;;16.52;7.50;;;5.00;99.90;;;;;;20350855;29;20574;-38
2024/04/05 06:07:48;;;;;;;8.18;5.00;;;5.30;99.90;;;;;;20383940;29;20028;-39
2024/04/05 06:17:50;;;;;;;8.75;4.75;;;5.30;99.90;;;;;;20358008;29;20040;-38
2024/04/05 06:27:52;;;;;;;9.32;3.70;;;5.20;99.90;;;;;;20308851;29;20052;-38
2024/04/05 06:37:54;;;;;;;9.05;3.72;;;5.40;99.90;;;;;;20327547;29;20036;-39
2024/04/05 06:47:56;;;;;;;7.93;3.38;;;5.70;99.90;;;;;;20321836;29;20041;-38
2024/04/05 06:58:00;;;;;;;9.98;5.72;;;6.40;99.90;;;;;;20327290;29;20040;-38
2024/04/05 07:08:02;;;;;;;12.98;7.20;;;7.40;99.90;;;;;;20311561;29;20073;-39
2024/04/05 07:18:08;;;;;;;13.23;6.82;;;8.90;99.90;;;;;;20269659;29;20068;-39
2024/04/05 07:28:09;;;;;;;7.20;4.20;;;10.10;99.90;;;;;;20365762;29;20047;-39
2024/04/05 07:38:12;;;;;;;10.98;5.30;;;11.20;99.90;;;;;;20387291;29;20032;-38
2024/04/05 07:48:15;;;;;;;8.25;5.13;;;10.70;99.90;;;;;;20414627;29;20447;-39
2024/04/05 07:58:18;;;;;;;8.40;5.90;;;11.00;99.90;;;;;;20429715;29;20507;-39
2024/04/05 08:08:20;;;;;;;10.07;5.28;;;11.80;99.90;;;;;;20417891;29;20031;-42
2024/04/05 08:18:22;;;;;;;10.90;5.35;;;12.30;99.90;;;;;;20419891;29;20035;-40
2024/04/05 08:28:24;;;;;;;9.38;5.70;;;13.50;99.90;;;;;;20380757;29;20040;-44
2024/04/05 08:38:26;;;;;;;11.60;5.82;;;13.80;99.90;;;;;;20376835;29;20100;-42
2024/04/05 08:48:32;;;;;;;10.73;5.68;;;14.50;99.90;;;;;;20372200;29;20059;-44
2024/04/05 08:58:34;;;;;;;10.57;5.40;;;14.50;99.90;;;;;;20387424;29;20511;-42
2024/04/05 09:08:52;;;;;;;10.40;5.72;;;15.20;99.90;;;;;;20392752;29;20099;-39
2024/04/05 09:19:08;;;;;;;8.17;4.80;;;15.10;99.90;;;;;;20358260;29;20088;-39
2024/04/05 09:29:13;;;;;;;8.27;4.68;;;14.20;99.90;;;;;;20352902;29;20404;-44
2024/04/05 09:39:19;;;;;;;12.23;6.07;;;14.00;99.90;;;;;;20340495;29;20178;-38
2024/04/05 09:49:20;;;;;;;14.07;6.07;;;14.20;99.90;;;;;;20336181;29;20563;-39
2024/04/05 09:59:30;;;;;;;15.18;6.40;;;14.60;99.90;;;;;;20331311;29;20056;-43
2024/04/05 10:09:35;;;;;;;10.93;5.67;;;14.20;99.90;;;;;;20331913;29;20091;-39
2024/04/05 10:19:39;;;;;;;14.35;8.35;;;13.80;99.90;;;;;;20320073;29;20047;-41
2024/04/05 10:29:41;;;;;;;13.10;9.40;;;13.40;99.90;;;;;;20339204;29;20052;-41
2024/04/05 10:39:43;;;;;;;16.25;11.75;;;13.30;99.90;;;;;;20335631;29;20483;-39
2024/04/05 10:49:45;;;;;;;17.58;11.57;;;13.00;99.90;;;;;;20317430;29;20071;-40
2024/04/05 10:59:48;;;;;;;19.00;10.30;;;12.90;99.90;;;;;;20320622;29;20043;-42
2024/04/05 11:09:49;;;;;;;14.95;9.55;;;12.10;99.90;;;;;;20333856;29;20032;-39
2024/04/05 11:19:51;;;;;;;13.55;7.15;;;11.60;99.90;;;;;;20335240;29;20042;-39
2024/04/05 11:29:53;;;;;;;11.98;5.75;;;11.50;99.90;;;;;;20343306;29;20325;-38
2024/04/05 11:39:59;;;;;;;8.05;5.60;;;11.80;99.90;;;;;;20340093;29;20061;-41
2024/04/05 11:50:04;;;;;;;10.73;6.07;;;12.00;99.90;;;;;;20339200;29;20055;-39
2024/04/05 12:00:12;;;;;;;9.10;5.35;;;12.20;99.90;;;;;;20335526;29;20088;-41
2024/04/05 12:10:16;;;;;;;8.18;4.70;;;12.60;99.90;;;;;;20379804;29;20044;-41
2024/04/05 12:20:17;;;;;;;10.77;5.20;;;12.90;99.90;;;;;;20341205;29;20043;-40
2024/04/05 12:30:22;;;;;;;10.65;5.82;;;13.20;99.90;;;;;;20341460;29;20500;-42
2024/04/05 12:40:39;;;;;;;10.73;6.47;;;13.40;99.90;;;;;;20354058;29;20031;-39
2024/04/05 12:50:41;;;;;;;9.65;5.70;;;13.80;99.90;;;;;;20365583;29;20099;-40
2024/04/05 13:00:43;;;;;;;9.98;5.28;;;13.90;99.90;;;;;;20427324;29;20028;-40
2024/04/05 13:10:56;;;;;;;11.90;6.75;;;14.10;99.90;;;;;;20340703;29;20060;-42
2024/04/05 13:21:08;;;;;;;12.20;7.18;;;14.50;99.90;;;;;;20359363;29;20392;-41
2024/04/05 13:31:13;;;;;;;14.00;9.43;;;14.30;99.90;;;;;;20340950;29;20052;-41
2024/04/05 13:41:15;;;;;;;13.40;10.00;;;13.30;99.90;;;;;;20289630;29;20036;-41
2024/04/05 13:51:17;;;;;;;16.63;8.88;;;12.40;99.90;;;;;;20227427;29;20123;-39
2024/04/05 14:01:19;;;;;;;15.45;8.77;;;12.20;99.90;;;;;;20227013;29;20152;-40
2024/04/05 14:11:21;;;;;;;18.33;8.13;;;12.00;99.90;;;;;;20225406;29;20130;-40
2024/04/05 14:21:25;;;;;;;11.63;7.20;;;12.40;99.90;;;;;;20263956;29;20575;-39
2024/04/05 14:31:27;;;;;;;12.88;6.30;;;12.70;99.90;;;;;;20342498;29;20043;-40
2024/04/05 14:41:29;;;;;;;7.75;4.80;;;13.30;99.90;;;;;;20339376;29;20036;-41
2024/04/05 14:51:32;;;;;;;8.32;4.97;;;13.90;99.90;;;;;;20335462;29;20042;-41
2024/04/05 15:01:35;;;;;;;13.95;6.40;;;14.40;99.90;;;;;;20357579;29;20036;-39
2024/04/05 15:11:36;;;;;;;11.52;6.72;;;13.80;99.90;;;;;;20359467;29;20040;-39
2024/04/05 15:21:38;;;;;;;9.70;5.90;;;13.50;99.90;;;;;;20335213;29;20044;-39
2024/04/05 15:31:42;;;;;;;11.45;6.30;;;13.60;99.90;;;;;;20357580;29;20065;-41
2024/04/05 15:41:44;;;;;;;9.48;5.65;;;13.40;99.90;;;;;;20362363;29;20036;-43
2024/04/05 15:51:46;;;;;;;6.68;5.13;;;12.60;99.90;;;;;;20367353;29;20399;-38
2024/04/05 16:01:47;;;;;;;8.15;4.43;;;12.10;99.90;;;;;;20369190;29;20095;-40
2024/04/05 16:11:49;;;;;;;9.48;4.45;;;11.70;99.90;;;;;;20351786;29;20036;-39
2024/04/05 16:21:51;;;;;;;5.88;3.30;;;11.20;99.90;;;;;;20374539;29;20040;-41
2024/04/05 16:31:53;;;;;;;9.48;4.65;;;10.60;99.90;;;;;;20365853;29;20047;-38
2024/04/05 16:41:54;;;;;;;8.85;3.83;;;9.90;99.90;;;;;;20372752;29;20032;-38
2024/04/05 16:51:56;;;;;;;8.40;5.03;;;9.30;99.90;;;;;;20347748;29;20039;-39
2024/04/05 17:01:58;;;;;;;11.68;5.38;;;8.90;99.90;;;;;;20388404;29;20048;-39
2024/04/05 17:12:00;;;;;;;12.52;5.85;;;8.50;99.90;;;;;;20356174;29;20036;-38
2024/04/05 17:22:02;;;;;;;9.07;5.97;;;8.10;99.90;;;;;;20378654;29;20060;-38
2024/04/05 17:32:05;;;;;;;11.85;6.28;;;7.70;99.90;;;;;;20329854;29;20044;-38
2024/04/05 17:42:06;;;;;;;10.02;5.63;;;7.30;99.90;;;;;;20404918;29;20035;-39
2024/04/05 17:52:09;;;;;;;9.70;5.38;;;7.00;99.90;;;;;;20395080;29;20039;-38
2024/04/05 18:02:10;;;;;;;14.00;5.65;;;6.60;99.90;;;;;;20336697;29;20120;-39
2024/04/05 18:12:12;;;;;;;11.80;5.82;;;6.30;99.90;;;;;;20349571;29;20040;-38
2024/04/05 18:22:14;;;;;;;11.88;5.95;;;6.30;99.90;;;;;;20363121;29;20050;-38
2024/04/05 18:32:16;;;;;;;12.30;6.32;;;6.30;99.90;;;;;;20346718;29;20099;-39
2024/04/05 18:42:18;;;;;;;9.65;5.25;;;6.10;99.90;;;;;;20341521;29;20044;-39
2024/04/05 18:52:26;;;;;;;13.52;6.70;;;5.90;99.90;;;;;;20387250;29;20550;-39
2024/04/05 19:02:28;;;;;;;8.73;5.32;;;5.80;99.90;;;;;;20402784;29;20055;-38
2024/04/05 19:12:34;;;;;;;11.15;5.53;;;5.80;99.90;;;;;;20338037;29;20032;-39
2024/04/05 19:22:36;;;;;;;10.77;5.80;;;5.70;99.90;;;;;;20360367;29;20048;-39
2024/04/05 19:32:38;;;;;;;9.45;4.55;;;5.70;99.90;;;;;;20343154;29;20043;-38
2024/04/05 19:42:40;;;;;;;7.72;4.10;;;5.70;99.90;;;;;;20384094;29;20080;-38
2024/04/05 19:52:43;;;;;;;8.90;4.82;;;5.80;99.90;;;;;;20387124;29;20115;-39
2024/04/05 20:02:45;;;;;;;8.50;4.70;;;5.80;99.90;;;;;;20344823;29;20088;-39
2024/04/05 20:12:47;;;;;;;9.82;4.18;;;5.90;99.90;;;;;;20399486;29;20770;-39
2024/04/05 20:22:48;;;;;;;12.55;3.80;;;5.90;99.90;;;;;;20411300;29;20387;-39
2024/04/05 20:32:50;;;;;;;9.00;2.90;;;5.90;99.90;;;;;;20408462;29;20028;-39
2024/04/05 20:42:52;;;;;;;6.70;3.00;;;5.60;99.90;;;;;;20399848;29;20031;-39
2024/04/05 20:52:54;;;;;;;7.18;3.05;;;5.60;99.90;;;;;;20376266;29;20659;-37
2024/04/05 21:02:56;;;;;;;7.72;3.55;;;5.80;99.90;;;;;;20347216;29;20436;-39
2024/04/05 21:12:58;;;;;;;5.93;2.40;;;5.80;99.90;;;;;;20344911;29;20157;-39
2024/04/05 21:23:03;;;;;;;6.65;2.75;;;5.90;99.90;;;;;;20356590;29;20080;-39
2024/04/05 21:33:05;;;;;;;5.97;3.42;;;5.90;99.90;;;;;;20346479;29;20484;-39
2024/04/05 21:43:07;;;;;;;7.68;3.25;;;5.50;99.90;;;;;;20394786;29;20036;-38
2024/04/05 21:53:09;;;;;;;8.15;2.72;;;5.30;99.90;;;;;;20393412;29;20047;-37
2024/04/05 22:03:10;;;;;;;6.32;2.53;;;5.30;99.90;;;;;;20346930;29;20056;-37
2024/04/05 22:13:12;;;;;;;9.55;3.28;;;5.40;99.90;;;;;;20409993;29;20036;-37
2024/04/05 22:23:14;;;;;;;7.20;2.55;;;5.40;99.90;;;;;;20420432;29;20051;-38
2024/04/05 22:33:16;;;;;;;4.55;2.45;;;5.50;99.90;;;;;;20411946;29;20079;-38
2024/04/05 22:43:18;;;;;;;5.65;1.85;;;5.50;99.90;;;;;;20410385;29;20098;-38
2024/04/05 22:53:29;;;;;;;8.13;2.40;;;5.50;99.90;;;;;;20390014;29;20036;-37
2024/04/05 23:03:30;;;;;;;;;;;5.50;99.90;;;;;;20418300;29;20046;-38
2024/04/05 23:13:32;;;;;;;5.28;2.95;;;5.50;99.90;;;;;;20416498;29;19917;-37
2024/04/05 23:23:35;;;;;;;6.45;3.33;;;5.80;99.90;;;;;;20415207;29;20400;-38
2024/04/05 23:33:37;;;;;;;6.20;2.67;;;5.60;99.90;;;;;;20338094;29;20043;-37
2024/04/05 23:43:38;;;;;;;4.63;2.22;;;5.50;99.90;;;;;;20409310;29;20487;-37
2024/04/05 23:53:40;;;;;;;4.68;2.85;;;5.40;99.90;;;;;;20363719;29;20028;-38
